Arivaca, Arizona
Current Conditions -  °F | °C
As of 2:54 AM on Sunday 25 Jan 2015 (Local Time) from KOLS Reporting Station
Clear Clear  
Wind Chill:   Ceiling: Unl
Heat Index:   Visibility: 10mi
Dew Point: -9°   Wind: 5mph
Humidity: 27%   Direction: 100°E
Pressure: 30.15"   Gusts: NA
Location:  31.57°N, 111.33°W
Report Text: KOLS 250954Z AUTO 10004KT 10SM CLR 09/M09 A3015 RMK AO2 SLP166 T00891094
Loading
Personal Weather Stations






























Interactive Weather Map New forecast layout! Learn more

10-Day Weather Forecast

Advertisements
Track Severe Weather on mobile